createdAt,value
2022-08-05T00:02:21.698Z,18.50
2022-08-05T00:04:55.295Z,18.55
2022-08-05T00:07:59.169Z,18.61
2022-08-05T00:10:09.955Z,18.51
2022-08-05T00:12:55.922Z,18.58
2022-08-05T00:15:55.577Z,18.54
2022-08-05T00:18:21.319Z,18.58
2022-08-05T00:20:50.418Z,18.54
2022-08-05T00:23:17.547Z,18.55
2022-08-05T00:26:04.325Z,18.34
2022-08-05T00:28:30.888Z,18.28
2022-08-05T00:31:04.187Z,18.13
2022-08-05T00:34:54.890Z,18.12
2022-08-05T00:37:10.273Z,18.01
2022-08-05T00:39:13.448Z,17.91
2022-08-05T00:41:51.578Z,17.84
2022-08-05T00:44:30.904Z,17.78
2022-08-05T00:47:02.176Z,17.78
2022-08-05T00:49:32.601Z,17.77
2022-08-05T00:52:00.301Z,17.84
2022-08-05T00:54:30.106Z,17.81
2022-08-05T00:56:57.261Z,17.75
2022-08-05T00:59:23.787Z,17.81
2022-08-05T01:01:51.192Z,17.82
2022-08-05T01:04:20.181Z,17.85
2022-08-05T01:06:53.462Z,17.74
2022-08-05T01:09:21.823Z,17.71
2022-08-05T01:11:54.954Z,17.69
2022-08-05T01:14:32.021Z,17.61
2022-08-05T01:17:29.969Z,17.63
2022-08-05T01:20:13.451Z,17.76
2022-08-05T01:23:14.415Z,17.58
2022-08-05T01:26:00.458Z,17.63
2022-08-05T01:28:52.906Z,17.65
2022-08-05T01:31:34.346Z,17.67
2022-08-05T01:34:32.321Z,17.56
2022-08-05T01:37:24.672Z,17.49
2022-08-05T01:40:01.402Z,17.47
2022-08-05T01:42:30.141Z,17.39
2022-08-05T01:44:59.933Z,17.42
2022-08-05T01:47:39.226Z,17.36
2022-08-05T01:50:28.602Z,17.27
2022-08-05T01:53:02.083Z,17.19
2022-08-05T01:55:32.528Z,17.19
2022-08-05T01:58:11.160Z,17.19
2022-08-05T02:00:50.925Z,17.19
2022-08-05T02:03:31.920Z,17.23
2022-08-05T02:06:33.586Z,17.20
2022-08-05T02:08:58.236Z,17.21
2022-08-05T02:11:33.115Z,17.22
2022-08-05T02:14:14.584Z,17.19
2022-08-05T02:16:53.462Z,17.15
2022-08-05T02:19:34.996Z,17.24
2022-08-05T02:22:05.347Z,17.27
2022-08-05T02:24:38.956Z,17.45
2022-08-05T02:27:11.902Z,17.37
2022-08-05T02:30:00.006Z,17.25
2022-08-05T02:32:31.142Z,17.20
2022-08-05T02:35:13.477Z,17.32
2022-08-05T02:37:47.808Z,17.33
2022-08-05T02:40:24.061Z,17.33
2022-08-05T02:42:54.144Z,17.42
2022-08-05T02:45:24.196Z,17.30
2022-08-05T02:48:11.442Z,17.36
2022-08-05T02:50:45.955Z,17.41
2022-08-05T02:53:19.444Z,17.23
2022-08-05T02:55:55.079Z,17.23
2022-08-05T02:58:30.639Z,17.25
2022-08-05T03:01:00.785Z,17.27
2022-08-05T03:03:34.180Z,17.13
2022-08-05T03:06:55.389Z,17.05
2022-08-05T03:09:08.470Z,17.00
2022-08-05T03:12:12.143Z,16.89
2022-08-05T03:14:45.944Z,16.73
2022-08-05T03:17:14.685Z,16.75
2022-08-05T03:19:41.838Z,16.70
2022-08-05T03:22:16.832Z,16.65
2022-08-05T03:24:49.587Z,16.67
2022-08-05T03:27:19.087Z,16.69
2022-08-05T03:30:07.812Z,16.64
2022-08-05T03:32:32.629Z,16.56
2022-08-05T03:34:59.898Z,16.52
2022-08-05T03:37:27.548Z,16.50
2022-08-05T03:40:01.479Z,16.50
2022-08-05T03:42:33.053Z,16.43
2022-08-05T03:45:21.846Z,16.53
2022-08-05T03:47:49.813Z,16.44
2022-08-05T03:50:16.377Z,16.57
2022-08-05T03:55:34.448Z,16.64
2022-08-05T03:56:36.615Z,16.64
2022-08-05T03:59:14.579Z,16.70
2022-08-05T04:01:50.361Z,16.78
2022-08-05T04:04:21.288Z,16.80
2022-08-05T04:06:51.107Z,16.92
2022-08-05T04:09:26.058Z,16.98
2022-08-05T04:11:54.116Z,17.09
2022-08-05T04:14:30.250Z,17.34
2022-08-05T04:16:58.582Z,17.50
2022-08-05T04:19:25.322Z,17.60
2022-08-05T04:22:10.080Z,17.77
2022-08-05T04:24:52.560Z,18.02
2022-08-05T04:27:19.707Z,18.28
2022-08-05T04:30:08.126Z,19.47
2022-08-05T04:32:35.892Z,20.39
2022-08-05T04:35:03.446Z,21.21
2022-08-05T04:38:02.996Z,21.95
2022-08-05T04:40:19.796Z,22.80
2022-08-05T04:42:46.484Z,22.86
2022-08-05T04:45:14.163Z,23.03
2022-08-05T04:47:49.641Z,23.27
2022-08-05T04:50:37.294Z,23.45
2022-08-05T04:53:04.234Z,24.26
2022-08-05T04:56:15.168Z,24.46
2022-08-05T04:58:21.522Z,24.68
2022-08-05T05:00:50.759Z,25.51
2022-08-05T05:03:20.255Z,25.13
2022-08-05T05:06:36.668Z,24.47
2022-08-05T05:08:33.483Z,23.33
2022-08-05T05:11:00.019Z,22.86
2022-08-05T05:13:26.612Z,23.18
2022-08-05T05:16:02.115Z,26.11
2022-08-05T05:18:33.743Z,27.27
2022-08-05T05:21:01.523Z,28.67
2022-08-05T05:23:39.097Z,29.58
2022-08-05T05:26:14.615Z,29.30
2022-08-05T05:28:42.805Z,27.57
2022-08-05T05:31:11.468Z,27.59
2022-08-05T05:33:57.080Z,27.09
2022-08-05T05:36:24.518Z,27.71
2022-08-05T05:38:55.475Z,29.27
2022-08-05T05:41:22.096Z,30.95
2022-08-05T05:43:58.563Z,31.52
2022-08-05T05:46:26.923Z,31.90
2022-08-05T05:48:53.470Z,32.43
2022-08-05T05:51:25.693Z,32.64
2022-08-05T05:53:58.873Z,33.64
2022-08-05T05:56:32.507Z,33.92
2022-08-05T05:59:05.254Z,34.73
2022-08-05T06:01:38.010Z,34.26
2022-08-05T06:04:07.507Z,34.99
2022-08-05T06:06:35.038Z,35.79
2022-08-05T06:09:04.081Z,35.01
2022-08-05T06:11:31.614Z,35.04
2022-08-05T06:13:58.232Z,34.62
2022-08-05T06:16:29.541Z,34.91
2022-08-05T06:19:00.916Z,34.76
2022-08-05T06:21:37.237Z,34.98
2022-08-05T06:24:11.701Z,35.71
2022-08-05T06:26:50.999Z,36.11
2022-08-05T06:29:26.454Z,36.52
2022-08-05T06:32:20.984Z,36.70
2022-08-05T06:34:53.459Z,36.96
2022-08-05T06:37:56.894Z,37.24
2022-08-05T06:40:07.764Z,37.55
2022-08-05T06:42:34.333Z,37.78
2022-08-05T06:45:05.539Z,38.00
2022-08-05T06:48:36.566Z,37.48
2022-08-05T06:50:23.869Z,37.88
2022-08-05T06:52:58.648Z,38.49
2022-08-05T06:55:30.358Z,38.68
2022-08-05T06:58:29.238Z,38.57
2022-08-05T07:00:50.425Z,40.69
2022-08-05T07:03:17.259Z,38.93
2022-08-05T07:05:44.547Z,38.69
2022-08-05T07:08:13.185Z,40.28
2022-08-05T07:10:52.719Z,39.91
2022-08-05T07:13:57.104Z,40.19
2022-08-05T07:17:59.723Z,41.05
2022-08-05T07:20:16.762Z,41.08
2022-08-05T07:22:22.177Z,40.56
2022-08-05T07:24:56.462Z,41.21
2022-08-05T07:27:23.211Z,39.91
2022-08-05T07:30:24.670Z,40.39
2022-08-05T07:32:40.942Z,41.23
2022-08-05T07:36:04.715Z,41.46
2022-08-05T07:37:55.932Z,41.95
2022-08-05T07:40:31.710Z,42.10
2022-08-05T07:42:59.822Z,42.51
2022-08-05T07:45:57.738Z,42.04
2022-08-05T07:49:00.611Z,42.22
2022-08-05T07:51:23.083Z,41.56
2022-08-05T07:53:51.767Z,41.39
2022-08-05T07:56:39.130Z,41.38
2022-08-05T07:59:08.516Z,41.55
2022-08-05T08:01:41.548Z,42.24
2022-08-05T08:04:23.002Z,42.22
2022-08-05T08:07:07.235Z,42.63
2022-08-05T08:09:34.517Z,42.17
2022-08-05T08:12:09.075Z,43.17
2022-08-05T08:14:46.557Z,43.88
2022-08-05T08:17:16.126Z,44.54
2022-08-05T08:20:10.201Z,43.29
2022-08-05T08:22:32.370Z,42.55
2022-08-05T08:25:03.291Z,42.54
2022-08-05T08:27:45.171Z,43.12
2022-08-05T08:30:28.479Z,42.90
2022-08-05T08:33:04.352Z,43.63
2022-08-05T08:35:41.511Z,43.77
2022-08-05T08:38:35.166Z,43.53
2022-08-05T08:41:10.064Z,43.41
2022-08-05T08:45:18.162Z,43.23
2022-08-05T08:46:30.416Z,43.59
2022-08-05T08:50:03.964Z,44.37
2022-08-05T08:52:02.873Z,44.48
2022-08-05T08:54:32.412Z,44.69
2022-08-05T08:56:59.345Z,43.73
2022-08-05T08:59:27.593Z,44.30
2022-08-05T09:01:56.975Z,44.63
2022-08-05T09:04:30.167Z,43.79
2022-08-05T09:06:57.778Z,44.17
2022-08-05T09:09:25.175Z,42.55
2022-08-05T09:11:54.809Z,42.26
2022-08-05T09:14:56.346Z,43.06
2022-08-05T09:17:41.124Z,43.14
2022-08-05T09:20:02.807Z,43.06
2022-08-05T09:23:09.258Z,42.37
2022-08-05T09:26:02.753Z,42.56
2022-08-05T09:28:32.271Z,42.61
2022-08-05T09:31:23.294Z,42.93
2022-08-05T09:33:59.642Z,43.12
2022-08-05T09:36:55.300Z,43.56
2022-08-05T09:39:41.280Z,44.40
2022-08-05T09:42:23.210Z,44.62
2022-08-05T09:44:56.438Z,43.40
2022-08-05T09:47:30.679Z,43.51
2022-08-05T09:50:03.656Z,43.38
2022-08-05T09:52:35.822Z,44.62
2022-08-05T09:55:56.676Z,44.09
2022-08-05T09:57:59.722Z,43.97
2022-08-05T10:00:26.787Z,43.43
2022-08-05T10:02:58.264Z,42.99
2022-08-05T10:05:27.817Z,43.32
2022-08-05T10:08:35.030Z,42.87
2022-08-05T10:10:43.887Z,43.29
2022-08-05T10:13:10.562Z,43.67
2022-08-05T10:15:41.326Z,43.34
2022-08-05T10:18:11.239Z,42.46
2022-08-05T10:20:44.151Z,42.95
2022-08-05T10:23:33.908Z,43.25
2022-08-05T10:26:07.327Z,43.54
2022-08-05T10:28:41.835Z,42.80
2022-08-05T10:32:52.274Z,43.58
2022-08-05T10:33:55.134Z,43.23
2022-08-05T10:36:23.384Z,42.94
2022-08-05T10:38:55.462Z,42.40
2022-08-05T10:41:54.278Z,41.23
2022-08-05T10:44:24.753Z,42.69
2022-08-05T10:46:54.666Z,41.67
2022-08-05T10:49:26.802Z,41.87
2022-08-05T10:52:03.241Z,42.32
2022-08-05T10:55:01.995Z,42.16
2022-08-05T10:57:31.747Z,41.84
2022-08-05T11:00:20.279Z,42.25
2022-08-05T11:03:22.816Z,42.62
2022-08-05T11:06:15.888Z,42.64
2022-08-05T11:09:16.812Z,41.09
2022-08-05T11:11:52.718Z,41.91
2022-08-05T11:14:57.667Z,41.83
2022-08-05T11:18:00.386Z,41.99
2022-08-05T11:20:37.286Z,42.13
2022-08-05T11:23:33.647Z,41.15
2022-08-05T11:26:09.922Z,42.21
2022-08-05T11:28:37.580Z,41.31
2022-08-05T11:31:06.630Z,42.39
2022-08-05T11:33:48.502Z,41.65
2022-08-05T11:36:34.518Z,42.25
2022-08-05T11:39:08.357Z,42.14
2022-08-05T11:41:56.236Z,41.50
2022-08-05T11:44:53.410Z,41.53
2022-08-05T11:47:15.296Z,40.70
2022-08-05T11:49:51.181Z,41.60
2022-08-05T11:52:29.229Z,41.59
2022-08-05T11:54:58.973Z,41.23
2022-08-05T11:58:07.907Z,40.46
2022-08-05T12:00:31.246Z,41.45
2022-08-05T12:02:57.864Z,40.75
2022-08-05T12:05:36.341Z,41.69
2022-08-05T12:08:10.044Z,41.11
2022-08-05T12:10:45.031Z,41.21
2022-08-05T12:13:28.031Z,41.87
2022-08-05T12:16:18.873Z,41.04
2022-08-05T12:18:49.136Z,40.93
2022-08-05T12:21:32.627Z,40.49
2022-08-05T12:24:08.936Z,40.71
2022-08-05T12:26:39.434Z,40.23
2022-08-05T12:29:15.915Z,40.67
2022-08-05T12:31:54.361Z,39.64
2022-08-05T12:34:32.871Z,40.23
2022-08-05T12:37:03.434Z,39.60
2022-08-05T12:39:37.353Z,40.96
2022-08-05T12:42:20.470Z,40.69
2022-08-05T12:44:47.870Z,40.12
2022-08-05T12:47:27.587Z,39.83
2022-08-05T12:50:04.747Z,39.67
2022-08-05T12:52:41.827Z,39.75
2022-08-05T12:55:25.541Z,39.56
2022-08-05T12:58:50.215Z,39.69
2022-08-05T13:01:59.947Z,39.99
2022-08-05T13:03:41.749Z,39.27
2022-08-05T13:06:16.724Z,38.94
2022-08-05T13:08:50.751Z,39.33
2022-08-05T13:11:59.968Z,38.74
2022-08-05T13:14:24.725Z,38.87
2022-08-05T13:17:02.780Z,38.24
2022-08-05T13:19:52.133Z,39.20
2022-08-05T13:22:28.234Z,38.84
2022-08-05T13:24:58.212Z,38.15
2022-08-05T13:27:50.308Z,38.01
2022-08-05T13:30:35.459Z,38.78
2022-08-05T13:33:03.638Z,38.52
2022-08-05T13:35:42.455Z,38.60
2022-08-05T13:38:15.743Z,37.47
2022-08-05T13:40:56.352Z,37.09
2022-08-05T13:43:23.022Z,37.12
2022-08-05T13:45:50.707Z,36.42
2022-08-05T13:48:58.389Z,35.85
2022-08-05T13:51:13.392Z,36.42
2022-08-05T13:53:48.111Z,36.95
2022-08-05T13:56:18.144Z,37.21
2022-08-05T13:58:52.720Z,36.91
2022-08-05T14:01:22.006Z,37.30
2022-08-05T14:04:12.230Z,37.14
2022-08-05T14:06:39.084Z,36.68
2022-08-05T14:09:14.251Z,36.91
2022-08-05T14:12:00.623Z,36.31
2022-08-05T14:14:32.510Z,35.78
2022-08-05T14:17:00.801Z,35.30
2022-08-05T14:19:27.406Z,34.91
2022-08-05T14:22:09.558Z,34.90
2022-08-05T14:24:39.845Z,34.75
2022-08-05T14:27:18.194Z,34.44
2022-08-05T14:29:45.394Z,33.99
2022-08-05T14:32:26.844Z,33.61
2022-08-05T14:34:56.678Z,33.56
2022-08-05T14:37:44.853Z,33.35
2022-08-05T14:40:14.171Z,33.07
2022-08-05T14:42:43.356Z,33.04
2022-08-05T14:45:10.505Z,32.94
2022-08-05T14:48:02.820Z,33.05
2022-08-05T14:50:25.207Z,33.27
2022-08-05T14:52:57.598Z,33.26
2022-08-05T14:55:28.575Z,33.32
2022-08-05T14:58:11.880Z,33.48
2022-08-05T15:00:59.467Z,33.44
2022-08-05T15:03:33.788Z,33.49
2022-08-05T15:06:08.294Z,33.52
2022-08-05T15:08:59.009Z,33.13
2022-08-05T15:11:52.593Z,33.12
2022-08-05T15:14:33.651Z,33.06
2022-08-05T15:17:01.583Z,33.08
2022-08-05T15:19:30.754Z,33.08
2022-08-05T15:21:58.002Z,32.99
2022-08-05T15:24:27.521Z,32.66
2022-08-05T15:26:54.144Z,32.65
2022-08-05T15:29:22.888Z,32.27
2022-08-05T15:31:53.002Z,32.04
2022-08-05T15:34:33.158Z,31.82
2022-08-05T15:37:06.323Z,31.75
2022-08-05T15:40:59.935Z,31.65
2022-08-05T15:42:49.873Z,31.65
2022-08-05T15:45:13.839Z,31.38
2022-08-05T15:47:41.756Z,31.33
2022-08-05T15:50:09.640Z,31.17
2022-08-05T15:52:54.368Z,30.87
2022-08-05T15:55:24.550Z,30.74
2022-08-05T15:57:52.207Z,30.81
2022-08-05T16:00:30.509Z,30.62
2022-08-05T16:03:05.806Z,30.45
2022-08-05T16:05:32.375Z,30.43
2022-08-05T16:07:58.978Z,30.38
2022-08-05T16:10:26.895Z,30.15
2022-08-05T16:12:53.757Z,30.18
2022-08-05T16:15:23.508Z,30.09
2022-08-05T16:17:57.935Z,29.99
2022-08-05T16:20:25.688Z,29.97
2022-08-05T16:22:54.614Z,29.90
2022-08-05T16:25:21.154Z,29.98
2022-08-05T16:28:05.024Z,29.94
2022-08-05T16:30:32.803Z,29.91
2022-08-05T16:33:01.043Z,30.01
2022-08-05T16:35:32.311Z,29.66
2022-08-05T16:38:16.013Z,29.53
2022-08-05T16:40:52.011Z,29.42
2022-08-05T16:43:23.661Z,29.44
2022-08-05T16:46:04.178Z,29.43
2022-08-05T16:48:37.705Z,29.35
2022-08-05T16:51:09.956Z,29.30
2022-08-05T16:54:03.031Z,29.31
2022-08-05T16:56:29.786Z,29.27
2022-08-05T16:58:57.241Z,29.15
2022-08-05T17:01:24.302Z,29.13
2022-08-05T17:03:51.791Z,29.05
2022-08-05T17:06:18.597Z,28.95
2022-08-05T17:08:53.286Z,28.93
2022-08-05T17:11:23.786Z,29.08
2022-08-05T17:14:00.244Z,28.93
2022-08-05T17:16:36.712Z,28.92
2022-08-05T17:19:07.088Z,28.79
2022-08-05T17:21:36.067Z,28.71
2022-08-05T17:24:18.731Z,28.80
2022-08-05T17:26:59.837Z,28.70
2022-08-05T17:29:34.087Z,28.83
2022-08-05T17:32:17.245Z,28.69
2022-08-05T17:34:47.634Z,28.62
2022-08-05T17:37:39.716Z,28.59
2022-08-05T17:40:03.238Z,28.56
2022-08-05T17:42:32.231Z,28.57
2022-08-05T17:44:59.620Z,28.48
2022-08-05T17:47:26.916Z,28.53
2022-08-05T17:50:03.859Z,28.47
2022-08-05T17:52:53.087Z,28.44
2022-08-05T17:55:22.469Z,28.43
2022-08-05T17:57:54.276Z,28.47
2022-08-05T18:00:20.893Z,28.29
2022-08-05T18:02:55.131Z,28.21
2022-08-05T18:05:22.047Z,28.17
2022-08-05T18:07:48.756Z,28.19
2022-08-05T18:10:21.204Z,28.03
2022-08-05T18:12:49.347Z,27.92
2022-08-05T18:15:16.057Z,27.74
2022-08-05T18:18:01.597Z,27.59
2022-08-05T18:20:31.629Z,27.49
2022-08-05T18:23:00.666Z,27.40
2022-08-05T18:25:38.937Z,27.29
2022-08-05T18:28:06.377Z,27.15
2022-08-05T18:30:34.312Z,27.09
2022-08-05T18:33:02.843Z,27.11
2022-08-05T18:36:00.489Z,26.98
2022-08-05T18:38:26.074Z,26.91
2022-08-05T18:41:55.216Z,26.88
2022-08-05T18:43:43.266Z,26.82
2022-08-05T18:46:19.842Z,26.76
2022-08-05T18:48:51.874Z,26.60
2022-08-05T18:52:04.542Z,26.48
2022-08-05T18:54:31.707Z,26.40
2022-08-05T18:57:01.840Z,26.39
2022-08-05T18:59:44.437Z,26.37
2022-08-05T19:02:28.605Z,26.22
2022-08-05T19:05:02.375Z,26.23
2022-08-05T19:07:50.095Z,26.10
2022-08-05T19:10:18.965Z,25.99
2022-08-05T19:12:53.816Z,25.96
2022-08-05T19:15:57.982Z,25.87
2022-08-05T19:18:09.334Z,25.87
2022-08-05T19:20:41.795Z,25.83
2022-08-05T19:24:04.397Z,25.77
2022-08-05T19:26:02.001Z,25.77
2022-08-05T19:28:31.253Z,25.65
2022-08-05T19:31:00.874Z,25.55
2022-08-05T19:33:36.044Z,25.49
2022-08-05T19:36:08.832Z,25.37
2022-08-05T19:38:36.694Z,25.28
2022-08-05T19:41:09.169Z,25.09
2022-08-05T19:44:05.940Z,25.11
2022-08-05T19:46:29.698Z,25.08
2022-08-05T19:49:02.810Z,24.85
2022-08-05T19:52:04.551Z,24.72
2022-08-05T19:54:25.500Z,24.66
2022-08-05T19:56:59.123Z,24.67
2022-08-05T19:59:56.005Z,24.74
2022-08-05T20:02:14.202Z,24.69
2022-08-05T20:04:45.846Z,24.56
2022-08-05T20:07:13.984Z,24.55
2022-08-05T20:09:54.421Z,24.48
2022-08-05T20:12:24.154Z,24.36
2022-08-05T20:14:53.000Z,24.25
2022-08-05T20:17:23.717Z,24.32
2022-08-05T20:19:50.919Z,24.26
2022-08-05T20:22:24.068Z,24.12
2022-08-05T20:24:53.717Z,23.89
2022-08-05T20:27:21.068Z,23.73
2022-08-05T20:29:58.510Z,23.70
2022-08-05T20:32:27.034Z,23.67
2022-08-05T20:34:54.222Z,23.68
2022-08-05T20:38:04.772Z,23.59
2022-08-05T20:40:08.375Z,23.58
2022-08-05T20:42:35.447Z,23.53
2022-08-05T20:45:02.643Z,23.42
2022-08-05T20:47:32.029Z,23.42
2022-08-05T20:49:59.135Z,23.43
2022-08-05T20:52:26.035Z,23.38
2022-08-05T20:55:15.834Z,23.37
2022-08-05T20:57:43.574Z,23.32
2022-08-05T21:00:41.204Z,23.20
2022-08-05T21:03:06.901Z,23.23
2022-08-05T21:05:47.741Z,23.22
2022-08-05T21:08:21.270Z,23.20
2022-08-05T21:10:54.893Z,23.13
2022-08-05T21:13:37.817Z,23.17
2022-08-05T21:16:11.990Z,23.08
2022-08-05T21:18:38.585Z,23.15
2022-08-05T21:21:13.350Z,23.17
2022-08-05T21:23:39.949Z,23.23
2022-08-05T21:26:09.863Z,23.15
2022-08-05T21:28:48.034Z,22.99
2022-08-05T21:31:17.998Z,22.94
2022-08-05T21:33:47.823Z,22.89
2022-08-05T21:36:27.666Z,22.80
2022-08-05T21:38:57.049Z,22.96
2022-08-05T21:41:26.002Z,22.97
2022-08-05T21:44:03.671Z,23.00
2022-08-05T21:46:34.349Z,22.81
2022-08-05T21:49:02.022Z,22.56
2022-08-05T21:52:21.971Z,22.55
2022-08-05T21:54:15.379Z,22.20
2022-08-05T21:56:51.379Z,22.11
2022-08-05T21:59:23.940Z,21.93
2022-08-05T22:01:54.491Z,21.92
2022-08-05T22:04:25.453Z,21.75
2022-08-05T22:06:52.729Z,21.56
2022-08-05T22:09:20.999Z,21.57
2022-08-05T22:11:48.676Z,21.60
2022-08-05T22:14:37.267Z,21.58
2022-08-05T22:17:06.897Z,21.36
2022-08-05T22:20:00.227Z,21.47
2022-08-05T22:22:26.979Z,21.36
2022-08-05T22:25:18.237Z,21.32
2022-08-05T22:28:08.858Z,21.22
2022-08-05T22:30:44.150Z,21.23
2022-08-05T22:33:56.566Z,21.15
2022-08-05T22:36:09.126Z,21.11
2022-08-05T22:38:36.689Z,20.91
2022-08-05T22:41:09.448Z,20.90
2022-08-05T22:43:38.005Z,20.90
2022-08-05T22:46:12.196Z,20.99
2022-08-05T22:48:41.096Z,20.90
2022-08-05T22:51:08.022Z,20.98
2022-08-05T22:53:42.480Z,20.76
2022-08-05T22:56:30.678Z,20.72
2022-08-05T22:59:02.851Z,20.60
2022-08-05T23:02:04.237Z,20.59
2022-08-05T23:04:19.590Z,20.62
2022-08-05T23:06:46.152Z,20.43
2022-08-05T23:09:27.773Z,20.42
2022-08-05T23:12:04.514Z,20.30
2022-08-05T23:14:32.288Z,20.29
2022-08-05T23:17:23.903Z,20.20
2022-08-05T23:19:57.049Z,20.21
2022-08-05T23:22:27.586Z,20.07
2022-08-05T23:24:54.679Z,20.09
2022-08-05T23:27:21.273Z,20.22
2022-08-05T23:29:50.602Z,19.94
2022-08-05T23:32:17.541Z,19.97
2022-08-05T23:34:50.898Z,20.00
2022-08-05T23:37:17.671Z,20.10
2022-08-05T23:39:53.854Z,20.16
2022-08-05T23:42:23.410Z,20.17
2022-08-05T23:44:57.246Z,20.26
2022-08-05T23:47:24.851Z,20.23
2022-08-05T23:49:55.765Z,20.42
2022-08-05T23:52:26.474Z,20.58
2022-08-05T23:54:55.359Z,20.51
2022-08-05T23:57:23.014Z,20.49
